• Join FlightAware (Why Join?)
  • Login
  • US Flag 
10:17AM EDT


 

Airport Tracker/Info


-or-


 

Live Flight TrackerFlight Track Log ✈ N818GM ✈ 20-Oct-2013 ✈ KAPF - KTLH

Flight Track Log - Related Links

Times and Time Zones

All times are in EDT time to prevent confusion due to time zone crossing. See the N818GM flight status page for this flight to view local times or setup timezone preferences in your user account.

Time Position Orientation Groundspeed Altitude Reporting Facility
EDT Latitude Longitude Course Direction KTS MPH feet Rate Location/Type
08:37AM 26.4027 -81.9213 355° North  Level Estimated
08:38AM 26.4497 -81.9176 North  Level FlightAware Approximate
08:39AM 26.4966 -81.9139 North  Level FlightAware Approximate
08:40AM 26.5436 -81.9103 North  Level FlightAware Approximate
08:41AM 26.5905 -81.9066 North  Level FlightAware Approximate
08:42AM 26.6374 -81.9030 North  Level FlightAware Approximate
08:43AM 26.6844 -81.8993 North  Level FlightAware Approximate
08:44AM 26.7313 -81.8956 North  Level FlightAware Approximate
08:45AM 26.7721 -81.9219 354° North  Level Estimated
08:46AM 26.8190 -81.9181 North  Level FlightAware Approximate
08:47AM 26.8660 -81.9143 North  Level FlightAware Approximate
08:47AM 26.7506 -81.8019 358° North 183 211 8,000  Level Miami Center
08:48AM 26.9129 -81.9106 North  Level FlightAware Approximate
08:48AM 26.7983 -81.8086 353° North 173 199 8,000  Level Miami Center
08:49AM 26.9532 -81.9378 352° North  Level Estimated
08:49AM 26.8419 -81.8128 355° North 173 199 8,000  Level Miami Center
08:50AM 27.0003 -81.9394 358° North  Level FlightAware Approximate
08:50AM 26.8900 -81.8172 355° North 173 199 8,000  Level Miami Center
08:51AM 27.0473 -81.9410 358° North  Level FlightAware Approximate
08:51AM 26.9372 -81.8331 343° North 173 199 8,000  Level Miami Center
08:52AM 26.9872 -81.8375 355° North 178 205 8,000  Level Miami Center
08:53AM 27.0411 -81.8492 349° North 178 205 8,000  Level Miami Center
08:54AM 27.0886 -81.8631 345° North 178 205 8,000  Level Miami Center
08:55AM 27.1381 -81.8814 342° North 178 205 8,000  Level Miami Center
08:56AM 27.1983 -81.8911 352° North 184 212 8,000  Level Miami Center
08:57AM 27.2481 -81.9003 351° North 184 212 8,000  Level Miami Center
08:58AM 27.3000 -81.9072 353° North 184 212 8,000  Level Miami Center
08:59AM 27.3519 -81.9164 351° North 184 212 8,000  Level Miami Center
09:00AM 27.4017 -81.9233 353° North 179 206 8,000  Level Miami Center
09:01AM 27.4514 -81.9325 351° North 179 206 8,000  Level Miami Center
09:02AM 27.5011 -81.9417 351° North 179 206 8,000  Level Miami Center
09:03AM 27.5511 -81.9464 355° North 174 200 8,000 -60 Level Miami Center
09:04AM 27.5989 -81.9531 353° North 174 200 7,900  Descending Miami Center
09:05AM 27.6467 -81.9600 353° North 174 200 8,000  Climbing Miami Center
09:06AM 27.6922 -81.9689 350° North 181 208 8,000  Level Miami Center
09:07AM 27.7419 -81.9783 350° North 181 208 8,000  Level Miami Center
09:08AM 27.7981 -81.9878 352° North 181 208 8,000  Level Miami Center
09:09AM 27.8497 -81.9972 351° North 186 214 8,000  Level Miami Center
09:10AM 27.8997 -82.0064 351° North 186 214 8,000  Level Miami Center
09:11AM 27.9494 -82.0133 353° North 186 214 8,000  Level Miami Center
09:12AM 28.0014 -82.0206 353° North 181 208 8,000  Level Miami Center
09:13AM 28.0400 -82.0458 330° Northwest 176 203 8,000  Level Miami Center
09:14AM 28.0667 -82.0667 325° Northwest 179 206 8,000  Level Tampa TRACON
09:15AM 28.1000 -82.1000 319° Northwest 180 207 8,000  Level Tampa TRACON
09:16AM 28.1500 -82.1167 344° North 181 208 8,000  Level Tampa TRACON
09:17AM 28.1833 -82.1500 319° Northwest 179 206 8,000  Level Tampa TRACON
09:18AM 28.2333 -82.1833 330° Northwest 180 207 8,000  Level Tampa TRACON
09:19AM 28.2833 -82.2000 344° North 182 209 8,000  Level Tampa TRACON
09:20AM 28.3167 -82.2333 319° Northwest 178 205 8,000  Level Tampa TRACON
09:21AM 28.3667 -82.2500 344° North 177 204 8,000  Level Tampa TRACON
09:22AM 28.4000 -82.2833 319° Northwest 174 200 8,000  Level Tampa TRACON
09:23AM 28.4500 -82.3167 330° Northwest 180 207 8,000  Level Tampa TRACON
09:24AM 28.5181 -82.3586 332° Northwest 181 208 8,100  Climbing Jacksonville Center
09:25AM 28.5642 -82.3867 332° Northwest 182 209 8,100  Level Jacksonville Center
09:26AM 28.6061 -82.4150 329° Northwest 179 206 8,100  Level Jacksonville Center
09:27AM 28.6583 -82.4431 335° Northwest 180 207 8,100  Level Jacksonville Center
09:28AM 28.7022 -82.4736 329° Northwest 177 204 8,100  Level Jacksonville Center
09:29AM 28.7419 -82.5019 328° Northwest 177 204 8,100  Level Jacksonville Center
09:30AM 28.7733 -82.5325 320° Northwest 179 206 8,100  Level Jacksonville Center
09:31AM 28.8089 -82.5703 317° Northwest 179 206 8,100  Level Jacksonville Center
09:32AM 28.8425 -82.6081 315° West 179 206 8,100  Level Jacksonville Center
09:33AM 28.8758 -82.6483 313° West 174 200 8,100  Level Jacksonville Center
09:34AM 28.9114 -82.6814 321° Northwest 169 194 8,100  Level Jacksonville Center
09:35AM 28.9450 -82.7242 312° West 169 194 8,100  Level Jacksonville Center
09:36AM 28.9825 -82.7619 319° Northwest 174 200 8,100  Level Jacksonville Center
09:37AM 29.0161 -82.8000 315° West 174 200 8,100  Level Jacksonville Center
09:38AM 29.0514 -82.8403 315° West 169 194 8,100  Level Jacksonville Center
09:39AM 29.0869 -82.8783 317° Northwest 169 194 8,100  Level Jacksonville Center
09:40AM 29.1225 -82.9164 317° Northwest 169 194 8,100  Level Jacksonville Center
09:41AM 29.1581 -82.9544 317° Northwest 169 194 8,100  Level Jacksonville Center
09:42AM 29.1914 -82.9925 315° West 169 194 8,100  Level Jacksonville Center
09:43AM 29.2267 -83.0283 318° Northwest 169 194 8,100  Level Jacksonville Center
09:44AM 29.2581 -83.0664 313° West 169 194 8,100  Level Jacksonville Center
09:45AM 29.2914 -83.1044 315° West 169 194 8,100  Level Jacksonville Center
09:46AM 29.3269 -83.1403 319° Northwest 169 194 8,100  Level Jacksonville Center
09:47AM 29.3622 -83.1808 315° West 169 194 8,100  Level Jacksonville Center
09:48AM 29.3956 -83.2167 317° Northwest 169 194 8,100  Level Jacksonville Center
09:49AM 29.4289 -83.2550 315° West 169 194 8,100  Level Jacksonville Center
09:50AM 29.4622 -83.2933 315° West 169 194 8,100  Level Jacksonville Center
09:51AM 29.4953 -83.3339 313° West 169 194 8,100  Level Jacksonville Center
09:52AM 29.5308 -83.3722 317° Northwest 169 194 8,100  Level Jacksonville Center
09:53AM 29.5661 -83.4108 316° Northwest 169 194 8,100  Level Jacksonville Center
09:54AM 29.5992 -83.4492 315° West 169 194 8,100  Level Jacksonville Center
09:55AM 29.6389 -83.4900 318° Northwest 169 194 8,100  Level Jacksonville Center
09:56AM 29.6700 -83.5283 313° West 169 194 8,100  Level Jacksonville Center
09:57AM 29.7053 -83.5669 316° Northwest 169 194 8,100  Level Jacksonville Center
09:58AM 29.7383 -83.6053 315° West 169 194 8,100  Level Jacksonville Center
09:59AM 29.7717 -83.6414 317° Northwest 169 194 8,100  Level Jacksonville Center
10:00AM 29.8069 -83.6800 316° Northwest 169 194 8,100  Level Jacksonville Center
10:01AM 29.8381 -83.7186 313° West 169 194 8,100 -120 Level Jacksonville Center
10:02AM 29.8731 -83.7572 316° Northwest 169 194 7,900 -300 Descending Jacksonville Center
10:03AM 29.9106 -83.7983 316° Northwest 169 194 7,500 -480 Descending Jacksonville Center
10:04AM 29.9456 -83.8394 314° West 169 194 7,000 -540 Descending Jacksonville Center
10:05AM 29.9808 -83.8806 315° West 169 194 6,500 -600 Descending Jacksonville Center
10:06AM 30.0181 -83.9217 316° Northwest 174 200 5,900 -720 Descending Jacksonville Center
10:07AM 30.0553 -83.9653 315° West 174 200 5,100 -840 Descending Jacksonville Center
10:08AM 30.0883 -84.0089 311° West 179 206 4,300 -840 Descending Jacksonville Center
10:09AM 30.1233 -84.0525 313° West 179 206 3,500 -840 Descending Jacksonville Center
10:11AM 30.1675 -84.0875 326° Northwest  Level FlightAware Approximate
10:18AM 30.3833 -84.3500 311° West  Level FlightAware Approximate
10:19AM 30.3967 -84.3509 311° West  Level Estimated
10:20AM 30.3967 -84.3509 311° West  Level Estimated
10:21AM 30.3967 -84.3509 311° West  Level Estimated
10:22AM 30.3967 -84.3509 311° West  Level Estimated
10:23AM 30.3967 -84.3509 311° West  Level Estimated
10:24AM 30.3967 -84.3509 311° West  Level Estimated
10:25AM 30.3967 -84.3509 311° West  Level Estimated
10:26AM 30.3967 -84.3509 311° West  Level Estimated
10:27AM 30.3967 -84.3509 311° West  Level Estimated
10:28AM 30.3967 -84.3509 311° West  Level Estimated